Kinston Regional Jetport At Stallings Field Kinston US
ICAO: KISO
IATA: ISO
Category: Medium
Scheduled Services: No

Elevation: 93 ft
TransAlt. 18000 ft.

Airport Communications:
SEYMOUR JOHN APP/DEP:127.3
AWOS 3:132.75
CTAF:120.6
GND:121.9
RALEIGH RDO:109.6
TWR:120.6
UNICOM:122.95

KISO Zoom In..

Runways:

(A) RW 05 length 11500 ft width 150 ft
ILS 111.30 / hdg 50

(B) RW 23 length 11500 ft width 150 ft
---- / hdg 230

Location; KISO
Day. 25 / Time. 11.56 Zulu
* Altimeter: 29.77
* Temperature: 16° c. 60.8°f.
* Wind from: 200° Speed 04 kn.
Dewpoint: 16° c.
Visibility: 7 Statute Miles.
Clouds: Scattered 400 ft.
Clouds: Overcast 5000 ft.

KISO 251156Z 20004KT 7SM SCT004 OVC050 16/16 A2977 RMK AO2


Wind From 200°
Speed 04 kn.

  YouTube Music Video
 
jpsmedia.com for Web Design  worldairports.se 2018   terms of use